createdAt,value
2022-10-25T00:00:59.903Z,0.28
2022-10-25T00:03:26.819Z,0.20
2022-10-25T00:05:53.587Z,0.20
2022-10-25T00:08:20.436Z,0.10
2022-10-25T00:10:47.406Z,0.10
2022-10-25T00:13:14.209Z,0.10
2022-10-25T00:15:41.010Z,0.10
2022-10-25T00:18:07.949Z,0.10
2022-10-25T00:20:36.905Z,0.10
2022-10-25T00:23:03.738Z,0.10
2022-10-25T00:25:30.560Z,0.20
2022-10-25T00:27:57.365Z,0.10
2022-10-25T00:30:24.329Z,0.10
2022-10-25T00:32:52.871Z,0.20
2022-10-25T00:35:19.838Z,0.20
2022-10-25T00:37:46.739Z,0.28
2022-10-25T00:40:13.711Z,0.30
2022-10-25T00:42:40.579Z,0.10
2022-10-25T00:45:20.026Z,0.13
2022-10-25T00:47:51.545Z,0.40
2022-10-25T00:50:42.775Z,0.17
2022-10-25T00:53:15.633Z,0.20
2022-10-25T00:55:46.428Z,0.20
2022-10-25T00:58:18.062Z,0.20
2022-10-25T01:00:45.943Z,0.10
2022-10-25T01:03:15.082Z,0.20
2022-10-25T01:05:43.671Z,0.10
2022-10-25T01:08:11.879Z,0.17
2022-10-25T01:13:06.432Z,0.10
2022-10-25T01:15:49.592Z,0.10
2022-10-25T01:18:23.175Z,0.20
2022-10-25T01:20:50.160Z,0.20
2022-10-25T01:24:04.114Z,0.10
2022-10-25T01:27:02.068Z,0.20
2022-10-25T01:29:52.963Z,0.20
2022-10-25T01:32:35.009Z,0.10
2022-10-25T01:35:25.390Z,0.10
2022-10-25T01:38:00.454Z,0.20
2022-10-25T01:40:40.859Z,0.10
2022-10-25T01:43:22.291Z,0.20
2022-10-25T01:45:59.107Z,0.20
2022-10-25T01:48:35.803Z,0.15
2022-10-25T01:51:15.957Z,0.13
2022-10-25T01:53:51.577Z,0.10
2022-10-25T01:56:39.092Z,0.10
2022-10-25T01:59:25.862Z,0.10
2022-10-25T02:02:00.798Z,0.20
2022-10-25T02:04:46.257Z,0.10
2022-10-25T02:07:24.895Z,0.10
2022-10-25T02:12:57.841Z,0.10
2022-10-25T02:15:38.601Z,0.20
2022-10-25T02:18:12.238Z,0.10
2022-10-25T02:20:44.445Z,0.20
2022-10-25T02:23:14.819Z,0.20
2022-10-25T02:25:43.300Z,0.20
2022-10-25T02:28:12.935Z,0.10
2022-10-25T02:30:42.283Z,0.10
2022-10-25T02:33:09.282Z,0.10
2022-10-25T02:35:36.449Z,0.10
2022-10-25T02:38:03.869Z,0.10
2022-10-25T02:40:31.177Z,0.20
2022-10-25T02:42:57.986Z,0.20
2022-10-25T02:45:24.878Z,0.17
2022-10-25T02:47:51.703Z,0.20
2022-10-25T02:50:18.523Z,0.10
2022-10-25T02:52:45.578Z,1.75
2022-10-25T02:55:12.619Z,0.20
2022-10-25T02:57:39.534Z,0.20
2022-10-25T03:00:07.597Z,0.15
2022-10-25T03:05:01.186Z,0.20
2022-10-25T03:07:27.974Z,0.20
2022-10-25T03:09:54.839Z,0.20
2022-10-25T03:12:21.652Z,0.10
2022-10-25T03:14:48.432Z,0.20
2022-10-25T03:17:15.219Z,0.10
2022-10-25T03:19:42.110Z,0.20
2022-10-25T03:22:08.874Z,0.20
2022-10-25T03:24:35.661Z,0.10
2022-10-25T03:27:02.471Z,0.10
2022-10-25T03:29:29.332Z,0.10
2022-10-25T03:31:56.196Z,0.10
2022-10-25T03:34:23.157Z,0.10
2022-10-25T03:36:49.971Z,0.10
2022-10-25T03:39:16.826Z,0.10
2022-10-25T03:41:43.729Z,0.15
2022-10-25T03:44:10.583Z,0.20
2022-10-25T03:46:37.431Z,0.20
2022-10-25T03:49:04.350Z,0.17
2022-10-25T03:51:31.181Z,0.20
2022-10-25T03:53:57.985Z,0.10
2022-10-25T03:56:24.911Z,0.10
2022-10-25T03:58:53.212Z,0.10
2022-10-25T04:01:20.326Z,0.10
2022-10-25T04:03:47.295Z,0.10
2022-10-25T04:06:14.183Z,0.10
2022-10-25T04:08:41.023Z,0.20
2022-10-25T04:11:07.949Z,0.20
2022-10-25T04:13:34.756Z,0.10
2022-10-25T04:16:06.790Z,0.30
2022-10-25T04:18:33.632Z,0.10
2022-10-25T04:21:00.551Z,0.10
2022-10-25T04:23:27.399Z,0.10
2022-10-25T04:25:56.794Z,0.20
2022-10-25T04:28:25.152Z,0.10
2022-10-25T04:30:52.203Z,0.17
2022-10-25T04:33:19.033Z,0.10
2022-10-25T04:35:55.354Z,0.10
2022-10-25T04:38:22.609Z,0.10
2022-10-25T04:41:00.486Z,0.10
2022-10-25T04:43:28.622Z,0.20
2022-10-25T04:45:55.478Z,0.10
2022-10-25T04:48:22.382Z,0.10
2022-10-25T04:50:49.270Z,0.10
2022-10-25T04:53:16.058Z,0.38
2022-10-25T04:55:43.218Z,0.17
2022-10-25T04:58:10.123Z,0.13
2022-10-25T05:00:36.943Z,0.20
2022-10-25T05:03:03.904Z,0.30
2022-10-25T05:05:30.795Z,0.15
2022-10-25T05:07:57.643Z,0.10
2022-10-25T05:10:24.537Z,0.10
2022-10-25T05:12:54.095Z,0.10
2022-10-25T05:15:20.851Z,0.20
2022-10-25T05:17:47.654Z,0.10
2022-10-25T05:20:14.494Z,0.10
2022-10-25T05:22:41.361Z,0.10
2022-10-25T05:25:08.499Z,0.20
2022-10-25T05:27:39.003Z,0.20
2022-10-25T05:30:06.522Z,0.10
2022-10-25T05:32:33.679Z,0.10
2022-10-25T05:35:00.454Z,0.10
2022-10-25T05:37:27.449Z,0.13
2022-10-25T05:39:54.441Z,0.10
2022-10-25T05:42:21.313Z,0.10
2022-10-25T05:44:48.117Z,0.10
2022-10-25T05:47:15.078Z,0.10
2022-10-25T05:49:42.373Z,0.13
2022-10-25T05:52:10.217Z,0.10
2022-10-25T05:54:37.087Z,0.22
2022-10-25T05:57:03.938Z,0.10
2022-10-25T05:59:30.739Z,0.20
2022-10-25T06:01:57.759Z,0.17
2022-10-25T06:04:24.643Z,0.10
2022-10-25T06:06:52.227Z,0.10
2022-10-25T06:09:19.208Z,0.15
2022-10-25T06:11:46.064Z,0.10
2022-10-25T06:14:12.960Z,0.10
2022-10-25T06:16:40.219Z,0.30
2022-10-25T06:19:07.338Z,0.15
2022-10-25T06:21:34.189Z,0.10
2022-10-25T06:24:01.131Z,0.10
2022-10-25T06:26:29.750Z,0.10
2022-10-25T06:28:59.799Z,0.10
2022-10-25T06:31:27.921Z,0.10
2022-10-25T06:33:54.796Z,0.20
2022-10-25T06:36:23.737Z,0.15
2022-10-25T06:38:51.156Z,0.10
2022-10-25T06:41:23.411Z,0.20
2022-10-25T06:43:51.015Z,0.10
2022-10-25T06:46:22.719Z,0.82
2022-10-25T06:48:51.239Z,0.10
2022-10-25T06:51:18.701Z,0.28
2022-10-25T06:53:45.836Z,0.20
2022-10-25T06:56:14.921Z,0.30
2022-10-25T06:58:42.574Z,0.10
2022-10-25T07:01:15.547Z,0.30
2022-10-25T07:03:43.028Z,0.10
2022-10-25T07:06:15.550Z,0.10
2022-10-25T07:08:44.914Z,1.38
2022-10-25T07:11:17.435Z,0.20
2022-10-25T07:13:45.250Z,0.10
2022-10-25T07:16:14.651Z,0.10
2022-10-25T07:18:42.322Z,0.88
2022-10-25T07:21:21.668Z,0.10
2022-10-25T07:23:50.188Z,0.32
2022-10-25T07:26:20.584Z,0.10
2022-10-25T07:28:49.280Z,0.20
2022-10-25T07:31:21.126Z,0.30
2022-10-25T07:33:49.231Z,0.10
2022-10-25T07:36:16.176Z,0.10
2022-10-25T07:38:43.098Z,0.32
2022-10-25T07:41:10.618Z,0.68
2022-10-25T07:43:37.547Z,0.10
2022-10-25T07:46:05.715Z,0.10
2022-10-25T07:51:04.551Z,0.10
2022-10-25T07:53:31.647Z,0.20
2022-10-25T07:55:58.663Z,0.55
2022-10-25T07:58:25.520Z,0.10
2022-10-25T08:00:52.593Z,0.32
2022-10-25T08:03:19.480Z,0.10
2022-10-25T08:05:47.861Z,0.30
2022-10-25T08:08:15.362Z,0.10
2022-10-25T08:10:43.625Z,0.17
2022-10-25T08:15:37.680Z,0.20
2022-10-25T08:18:05.517Z,0.10
2022-10-25T08:20:56.902Z,0.20
2022-10-25T08:23:19.608Z,0.28
2022-10-25T08:25:46.837Z,0.10
2022-10-25T08:28:13.974Z,0.40
2022-10-25T08:30:41.539Z,0.10
2022-10-25T08:33:11.616Z,0.20
2022-10-25T08:35:39.164Z,0.10
2022-10-25T08:38:06.453Z,0.10
2022-10-25T08:40:58.753Z,0.10
2022-10-25T08:44:04.538Z,0.10
2022-10-25T08:46:54.707Z,0.10
2022-10-25T08:49:28.491Z,0.10
2022-10-25T08:51:56.813Z,0.20
2022-10-25T08:54:33.268Z,0.10
2022-10-25T08:57:14.987Z,0.10
2022-10-25T08:59:45.446Z,0.10
2022-10-25T09:02:25.380Z,0.32
2022-10-25T09:04:53.471Z,0.10
2022-10-25T09:07:38.442Z,0.25
2022-10-25T09:10:16.213Z,0.10
2022-10-25T09:13:10.868Z,0.10
2022-10-25T09:16:09.415Z,0.13
2022-10-25T09:18:59.932Z,0.30
2022-10-25T09:21:42.783Z,0.20
2022-10-25T09:24:22.403Z,0.10
2022-10-25T09:27:11.895Z,0.10
2022-10-25T09:29:40.020Z,0.10
2022-10-25T09:34:54.466Z,0.30
2022-10-25T09:37:36.809Z,0.10
2022-10-25T09:40:09.424Z,0.10
2022-10-25T09:45:54.334Z,0.10
2022-10-25T09:48:29.148Z,0.22
2022-10-25T09:51:24.541Z,0.10
2022-10-25T09:53:53.103Z,0.17
2022-10-25T09:56:19.923Z,0.30
2022-10-25T09:58:49.808Z,0.10
2022-10-25T10:01:21.353Z,0.13
2022-10-25T10:03:52.402Z,0.10
2022-10-25T10:06:26.071Z,0.10
2022-10-25T10:08:57.998Z,0.10
2022-10-25T10:11:25.883Z,0.10
2022-10-25T10:14:13.003Z,0.22
2022-10-25T10:16:47.922Z,0.10
2022-10-25T10:19:29.985Z,0.50
2022-10-25T10:22:14.558Z,0.10
2022-10-25T10:24:43.704Z,0.25
2022-10-25T10:27:24.303Z,0.20
2022-10-25T10:30:02.944Z,0.30
2022-10-25T10:32:33.688Z,0.10
2022-10-25T10:35:02.529Z,0.25
2022-10-25T10:37:31.193Z,0.10
2022-10-25T10:40:00.380Z,0.10
2022-10-25T10:45:10.511Z,0.10
2022-10-25T10:47:45.910Z,0.10
2022-10-25T10:50:25.561Z,1.13
2022-10-25T10:53:22.331Z,0.40
2022-10-25T10:55:53.536Z,0.20
2022-10-25T10:58:26.900Z,0.30
2022-10-25T11:00:56.107Z,0.10
2022-10-25T11:04:00.802Z,0.17
2022-10-25T11:06:35.329Z,0.10
2022-10-25T11:09:21.922Z,0.17
2022-10-25T11:12:08.144Z,0.10
2022-10-25T11:14:35.049Z,0.30
2022-10-25T11:17:32.958Z,0.40
2022-10-25T11:20:21.503Z,0.50
2022-10-25T11:23:08.030Z,0.10
2022-10-25T11:25:44.325Z,0.40
2022-10-25T11:28:32.154Z,0.20
2022-10-25T11:33:49.062Z,0.10
2022-10-25T11:36:31.043Z,0.20
2022-10-25T11:39:31.528Z,0.20
2022-10-25T11:42:18.519Z,0.20
2022-10-25T11:45:01.314Z,0.30
2022-10-25T11:47:42.379Z,0.20
2022-10-25T11:50:32.313Z,0.17
2022-10-25T11:53:18.038Z,0.30
2022-10-25T11:56:12.261Z,0.50
2022-10-25T11:58:39.110Z,0.10
2022-10-25T12:01:27.157Z,0.15
2022-10-25T12:04:04.474Z,0.10
2022-10-25T12:06:59.628Z,0.10
2022-10-25T12:09:53.383Z,0.10
2022-10-25T12:12:25.591Z,0.35
2022-10-25T12:14:57.947Z,0.30
2022-10-25T12:17:33.932Z,0.30
2022-10-25T12:20:07.525Z,0.28
2022-10-25T12:22:39.595Z,0.15
2022-10-25T12:25:29.851Z,0.20
2022-10-25T12:28:06.874Z,0.20
2022-10-25T12:30:35.000Z,0.20
2022-10-25T12:35:40.449Z,0.10
2022-10-25T12:38:15.470Z,0.10
2022-10-25T12:40:47.863Z,0.10
2022-10-25T12:43:24.210Z,0.30
2022-10-25T12:46:18.379Z,0.20
2022-10-25T12:49:03.733Z,0.20
2022-10-25T12:52:02.497Z,0.22
2022-10-25T12:54:55.649Z,0.20
2022-10-25T12:57:36.494Z,0.10
2022-10-25T13:00:14.334Z,0.20
2022-10-25T13:03:03.005Z,0.10
2022-10-25T13:05:51.753Z,0.10
2022-10-25T13:08:21.335Z,0.10
2022-10-25T13:10:56.416Z,0.10
2022-10-25T13:13:26.882Z,0.20
2022-10-25T13:15:57.668Z,0.10
2022-10-25T13:18:45.223Z,0.20
2022-10-25T13:21:54.882Z,0.10
2022-10-25T13:24:43.302Z,0.75
2022-10-25T13:27:12.903Z,0.20
2022-10-25T13:29:47.650Z,0.30
2022-10-25T13:32:20.490Z,0.10
2022-10-25T13:34:47.809Z,1.65
2022-10-25T13:37:33.066Z,0.50
2022-10-25T13:40:05.245Z,0.13
2022-10-25T13:42:39.188Z,0.10
2022-10-25T13:45:08.443Z,0.30
2022-10-25T13:47:40.403Z,0.10
2022-10-25T13:50:42.276Z,0.30
2022-10-25T13:53:21.384Z,0.20
2022-10-25T13:56:05.770Z,0.30
2022-10-25T13:58:32.662Z,0.20
2022-10-25T14:01:18.283Z,0.10
2022-10-25T14:03:54.373Z,0.20
2022-10-25T14:06:41.743Z,0.35
2022-10-25T14:09:45.260Z,0.45
2022-10-25T14:12:20.256Z,0.20
2022-10-25T14:15:22.608Z,0.20
2022-10-25T14:17:50.352Z,0.93
2022-10-25T14:20:31.943Z,0.60
2022-10-25T14:23:15.342Z,0.40
2022-10-25T14:26:03.053Z,0.57
2022-10-25T14:28:32.157Z,0.10
2022-10-25T14:31:04.499Z,0.50
2022-10-25T14:33:40.950Z,0.30
2022-10-25T14:36:19.903Z,0.73
2022-10-25T14:38:58.532Z,0.50
2022-10-25T14:41:31.280Z,0.32
2022-10-25T14:43:58.889Z,0.52
2022-10-25T14:46:30.277Z,0.60
2022-10-25T14:48:59.081Z,0.38
2022-10-25T14:51:32.122Z,0.20
2022-10-25T14:54:04.347Z,1.10
2022-10-25T14:56:39.996Z,0.20
2022-10-25T14:59:18.139Z,0.40
2022-10-25T15:01:58.023Z,0.57
2022-10-25T15:04:41.794Z,0.30
2022-10-25T15:07:19.066Z,0.38
2022-10-25T15:09:54.606Z,0.20
2022-10-25T15:12:26.946Z,0.20
2022-10-25T15:14:55.634Z,0.63
2022-10-25T15:17:22.371Z,0.60
2022-10-25T15:19:59.832Z,0.45
2022-10-25T15:22:44.623Z,0.30
2022-10-25T15:25:23.474Z,0.28
2022-10-25T15:27:54.658Z,0.20
2022-10-25T15:30:43.131Z,0.80
2022-10-25T15:33:13.654Z,0.52
2022-10-25T15:35:51.156Z,0.82
2022-10-25T15:38:18.892Z,0.43
2022-10-25T15:40:47.373Z,1.13
2022-10-25T15:43:14.844Z,1.40
2022-10-25T15:45:42.065Z,0.22
2022-10-25T15:48:18.128Z,0.95
2022-10-25T15:50:51.751Z,0.98
2022-10-25T15:53:19.510Z,1.17
2022-10-25T15:55:47.386Z,0.45
2022-10-25T15:58:14.187Z,1.05
2022-10-25T16:00:41.978Z,0.40
2022-10-25T16:03:12.982Z,0.47
2022-10-25T16:05:40.255Z,1.60
2022-10-25T16:08:08.644Z,0.30
2022-10-25T16:10:37.034Z,1.35
2022-10-25T16:13:09.855Z,1.13
2022-10-25T16:15:36.883Z,1.27
2022-10-25T16:18:04.416Z,0.52
2022-10-25T16:20:32.199Z,0.90
2022-10-25T16:22:59.054Z,0.80
2022-10-25T16:25:30.534Z,0.85
2022-10-25T16:28:00.862Z,0.65
2022-10-25T16:30:32.115Z,2.15
2022-10-25T16:32:58.942Z,1.17
2022-10-25T16:35:25.857Z,1.20
2022-10-25T16:37:52.884Z,4.05
2022-10-25T16:40:21.740Z,2.05
2022-10-25T16:42:49.537Z,1.60
2022-10-25T16:45:27.495Z,2.38
2022-10-25T16:47:56.690Z,4.20
2022-10-25T16:50:29.316Z,8.15
2022-10-25T16:53:02.059Z,2.15
2022-10-25T16:55:30.572Z,2.30
2022-10-25T16:57:58.698Z,2.60
2022-10-25T17:02:53.936Z,1.77
2022-10-25T17:05:23.844Z,2.65
2022-10-25T17:07:50.907Z,1.85
2022-10-25T17:10:19.815Z,1.05
2022-10-25T17:12:49.734Z,2.15
2022-10-25T17:15:18.035Z,1.75
2022-10-25T17:22:41.577Z,1.13
2022-10-25T17:25:10.023Z,1.00
2022-10-25T17:27:39.922Z,1.10
2022-10-25T17:30:09.162Z,1.25
2022-10-25T17:32:39.370Z,1.85
2022-10-25T17:35:06.579Z,1.80
2022-10-25T17:37:33.770Z,1.40
2022-10-25T17:40:00.939Z,2.47
2022-10-25T17:42:28.383Z,2.10
2022-10-25T17:44:55.727Z,1.80
2022-10-25T17:47:22.605Z,2.28
2022-10-25T17:49:49.562Z,2.65
2022-10-25T17:52:16.536Z,3.90
2022-10-25T17:54:43.396Z,1.33
2022-10-25T17:57:10.275Z,2.33
2022-10-25T17:59:37.135Z,2.60
2022-10-25T18:02:04.078Z,2.45
2022-10-25T18:04:46.921Z,2.08
2022-10-25T18:07:17.945Z,2.78
2022-10-25T18:09:44.747Z,1.90
2022-10-25T18:12:11.704Z,2.17
2022-10-25T18:14:38.688Z,1.98
2022-10-25T18:17:06.570Z,2.28
2022-10-25T18:19:33.488Z,5.40
2022-10-25T18:22:00.792Z,2.70
2022-10-25T18:24:29.137Z,2.45
2022-10-25T18:26:56.300Z,1.98
2022-10-25T18:29:23.830Z,2.47
2022-10-25T18:31:50.726Z,1.17
2022-10-25T18:34:17.985Z,1.05
2022-10-25T18:36:44.906Z,0.30
2022-10-25T18:39:11.763Z,1.67
2022-10-25T18:41:40.831Z,2.13
2022-10-25T18:44:14.152Z,3.28
2022-10-25T18:46:42.793Z,2.58
2022-10-25T18:49:13.607Z,2.13
2022-10-25T18:51:41.125Z,4.18
2022-10-25T18:54:12.326Z,1.27
2022-10-25T18:56:39.334Z,1.75
2022-10-25T18:59:06.170Z,2.55
2022-10-25T19:01:33.412Z,2.78
2022-10-25T19:04:02.281Z,3.20
2022-10-25T19:06:29.837Z,1.98
2022-10-25T19:08:56.755Z,3.63
2022-10-25T19:11:23.905Z,2.47
2022-10-25T19:13:55.232Z,1.50
2022-10-25T19:16:23.490Z,3.88
2022-10-25T19:18:50.527Z,3.55
2022-10-25T19:21:18.322Z,2.10
2022-10-25T19:23:46.436Z,1.20
2022-10-25T19:28:42.796Z,1.00
2022-10-25T19:31:20.710Z,1.23
2022-10-25T19:36:16.551Z,2.25
2022-10-25T19:38:45.130Z,2.55
2022-10-25T19:41:14.941Z,1.52
2022-10-25T19:43:41.767Z,1.15
2022-10-25T19:46:09.042Z,1.75
2022-10-25T19:48:36.067Z,0.93
2022-10-25T19:51:11.803Z,3.30
2022-10-25T19:53:39.245Z,1.20
2022-10-25T19:56:21.672Z,1.52
2022-10-25T19:58:49.666Z,0.30
2022-10-25T20:01:27.264Z,1.23
2022-10-25T20:03:55.467Z,1.85
2022-10-25T20:06:25.037Z,0.93
2022-10-25T20:08:53.034Z,2.35
2022-10-25T20:11:20.576Z,0.93
2022-10-25T20:13:47.512Z,1.10
2022-10-25T20:16:15.261Z,1.15
2022-10-25T20:18:42.851Z,2.25
2022-10-25T20:21:15.369Z,2.45
2022-10-25T20:23:49.175Z,3.55
2022-10-25T20:26:24.965Z,0.88
2022-10-25T20:28:57.816Z,2.42
2022-10-25T20:31:26.415Z,2.75
2022-10-25T20:33:53.763Z,3.40
2022-10-25T20:36:20.917Z,1.77
2022-10-25T20:38:48.034Z,4.50
2022-10-25T20:41:16.251Z,2.63
2022-10-25T20:43:51.184Z,1.80
2022-10-25T20:46:18.650Z,0.75
2022-10-25T20:48:46.505Z,0.70
2022-10-25T20:51:15.700Z,1.77
2022-10-25T20:53:44.389Z,1.70
2022-10-25T20:56:12.494Z,0.80
2022-10-25T21:01:06.132Z,1.23
2022-10-25T21:03:33.279Z,1.23
2022-10-25T21:06:03.470Z,1.27
2022-10-25T21:08:31.151Z,1.13
2022-10-25T21:11:00.095Z,0.43
2022-10-25T21:13:29.769Z,1.45
2022-10-25T21:15:56.837Z,1.38
2022-10-25T21:18:28.041Z,2.42
2022-10-25T21:21:00.614Z,1.08
2022-10-25T21:23:27.765Z,0.85
2022-10-25T21:25:59.160Z,0.88
2022-10-25T21:28:27.120Z,0.80
2022-10-25T21:30:54.316Z,0.88
2022-10-25T21:33:21.202Z,1.65
2022-10-25T21:35:48.059Z,0.68
2022-10-25T21:38:14.894Z,1.20
2022-10-25T21:40:41.676Z,0.68
2022-10-25T21:43:08.529Z,0.93
2022-10-25T21:45:39.658Z,0.32
2022-10-25T21:48:06.658Z,1.15
2022-10-25T21:50:33.555Z,0.10
2022-10-25T21:53:00.403Z,0.70
2022-10-25T21:55:27.218Z,0.20
2022-10-25T21:57:54.640Z,0.40
2022-10-25T22:00:21.774Z,0.20
2022-10-25T22:02:48.758Z,0.20
2022-10-25T22:05:15.598Z,0.15
2022-10-25T22:07:42.697Z,0.20
2022-10-25T22:10:09.836Z,0.20
2022-10-25T22:12:36.626Z,0.20
2022-10-25T22:15:03.557Z,0.20
2022-10-25T22:17:30.450Z,0.30
2022-10-25T22:19:57.319Z,0.20
2022-10-25T22:22:24.187Z,0.30
2022-10-25T22:24:51.002Z,0.20
2022-10-25T22:27:17.806Z,0.35
2022-10-25T22:29:44.795Z,0.63
2022-10-25T22:32:11.652Z,0.20
2022-10-25T22:34:38.511Z,0.20
2022-10-25T22:37:05.326Z,0.25
2022-10-25T22:39:32.141Z,0.20
2022-10-25T22:41:59.266Z,0.28
2022-10-25T22:44:26.105Z,0.63
2022-10-25T22:46:53.055Z,0.20
2022-10-25T22:49:21.642Z,0.10
2022-10-25T22:51:48.442Z,0.20
2022-10-25T22:54:15.284Z,0.40
2022-10-25T22:56:42.126Z,1.95
2022-10-25T22:59:12.159Z,0.25
2022-10-25T23:01:39.911Z,1.48
2022-10-25T23:04:10.453Z,0.10
2022-10-25T23:06:39.657Z,0.20
2022-10-25T23:09:09.199Z,0.20
2022-10-25T23:11:38.401Z,0.10
2022-10-25T23:14:07.367Z,0.25
2022-10-25T23:16:34.515Z,0.10
2022-10-25T23:19:01.457Z,0.20
2022-10-25T23:21:32.236Z,0.20
2022-10-25T23:24:00.318Z,0.20
2022-10-25T23:26:32.553Z,0.30
2022-10-25T23:29:00.356Z,0.30
2022-10-25T23:31:29.627Z,0.10
2022-10-25T23:33:59.400Z,0.20
2022-10-25T23:36:37.566Z,3.03
2022-10-25T23:39:07.489Z,0.20
2022-10-25T23:41:34.615Z,0.20
2022-10-25T23:44:01.558Z,0.30
2022-10-25T23:46:28.641Z,0.20
2022-10-25T23:48:55.539Z,0.20
2022-10-25T23:51:22.412Z,0.17
2022-10-25T23:53:49.717Z,0.20
2022-10-25T23:56:16.531Z,0.57
2022-10-25T23:58:43.311Z,0.10
